Aplicació Alertes

Dades de l'estació automàtica els Alfacs

?
?
Resum diari 22:30 TU
Dades diàries de l'estació meteorològica
Temperatura mitjana 9.2 °C
Temperatura màxima 13.7 °C 14:48 TU
Temperatura mínima 6.2 °C 7:26 TU
Humitat relativa mitjana 52%
Precipitació acumulada 0.0 mm
Ratxa màxima del vent (2 m) 41.8 km/h - 338º 0:55 TU
Pressió atmosfèrica mitjana 1027.6 hPa
Irradiació solar global 9.3 MJ/m2

El tram horari està expressat en Temps Universal (TU). Cal sumar una hora en horari d'hivern i dues en horari d'estiu per passar a l'hora oficial.

els Alfacs

Metadades estació meteorol´gica
Municipi Sant Carles de la Ràpita
Comarca Montsià
Altitud 0 m
Data alta 06.07.1994
Estat actual Operativa
Dades de període
Període
TU
TM
°C
TX
°C
TN
°C
HRM
%
PPT
mm
VVM (2 m)
km/h
DVM (2 m)
graus
VVX (2 m)
km/h
PM
hPa
RS
W/m2
00:00 - 00:30 8.1 8.5 7.9 57 0.0 14.4 333 24.8 1024.2 0
00:30 - 01:00 8.2 8.4 7.9 55 0.0 22.0 334 41.8 1024.2 0
01:00 - 01:30 8.2 8.3 7.9 55 0.0 20.2 334 38.2 1024.3 0
01:30 - 02:00 8.0 8.1 7.9 56 0.0 14.8 334 29.9 1024.8 0
02:00 - 02:30 8.1 8.3 7.9 56 0.0 16.9 334 30.2 1025.0 0
02:30 - 03:00 7.9 8.1 7.8 55 0.0 16.9 338 29.9 1025.2 0
03:00 - 03:30 7.8 8.0 7.6 56 0.0 12.6 329 25.6 1025.0 0
03:30 - 04:00 7.5 7.6 7.4 56 0.0 8.6 326 18.7 1025.0 0
04:00 - 04:30 7.4 7.5 7.3 54 0.0 9.4 315 20.2 1025.2 0
04:30 - 05:00 7.3 7.4 7.1 55 0.0 10.4 327 19.1 1025.3 0
05:00 - 05:30 7.1 7.3 7.0 56 0.0 9.4 322 20.2 1025.5 0
05:30 - 06:00 7.3 7.5 7.2 56 0.0 10.1 326 22.0 1026.0 0
06:00 - 06:30 7.0 7.3 6.7 59 0.0 8.3 330 15.5 1026.4 0
06:30 - 07:00 7.3 7.5 7.1 58 0.0 11.5 338 22.0 1026.8 0
07:00 - 07:30 6.6 7.1 6.2 61 0.0 6.5 324 16.6 1026.8 6
07:30 - 08:00 6.6 7.1 6.3 59 0.0 6.1 334 13.0 1027.1 54
08:00 - 08:30 7.2 7.6 7.0 58 0.0 10.4 340 18.4 1027.6 128
08:30 - 09:00 8.1 8.5 7.6 56 0.0 8.3 329 17.3 1027.9 199
09:00 - 09:30 9.0 9.4 8.5 53 0.0 11.2 335 21.6 1028.3 267
09:30 - 10:00 9.8 10.2 9.4 50 0.0 11.2 334 20.5 1028.7 329
10:00 - 10:30 10.5 10.9 10.2 47 0.0 11.2 334 18.4 1028.9 379
10:30 - 11:00 11.1 11.3 10.9 43 0.0 14.8 337 25.6 1029.1 417
11:00 - 11:30 11.5 11.6 11.3 40 0.0 16.9 339 26.3 1028.9 442
11:30 - 12:00 11.8 12.0 11.6 39 0.0 14.0 337 21.6 1028.6 454
12:00 - 12:30 12.2 12.5 12.1 38 0.0 13.7 339 23.4 1028.3 452
12:30 - 13:00 12.6 12.7 12.5 36 0.0 13.0 339 23.4 1028.0 435
13:00 - 13:30 12.9 13.1 12.7 34 0.0 10.8 340 18.7 1027.7 404
13:30 - 14:00 13.2 13.3 13.1 34 0.0 9.7 342 16.6 1027.5 361
14:00 - 14:30 13.3 13.5 13.2 34 0.0 8.6 334 18.4 1027.4 308
14:30 - 15:00 13.4 13.7 12.8 38 0.0 3.2 270 13.3 1027.5 220
15:00 - 15:30 13.2 13.7 12.3 42 0.0 0.7 207 6.5 1027.6 175
15:30 - 16:00 11.7 12.3 11.0 51 0.0 3.2 195 8.6 1027.9 102
16:00 - 16:30 11.7 12.2 11.1 41 0.0 1.4 346 6.5 1028.2 16
16:30 - 17:00 10.0 11.0 9.7 57 0.0 1.8 336 7.6 1028.5 2
17:00 - 17:30 10.0 10.5 9.3 52 0.0 2.9 328 6.1 1028.9 0
17:30 - 18:00 9.1 9.4 8.6 54 0.0 2.2 320 5.8 1028.8 0
18:00 - 18:30 8.3 8.6 7.9 58 0.0 1.4 324 4.3 1028.9 0
18:30 - 19:00 7.3 7.9 6.7 65 0.0 0.4 319 5.0 1029.1 0
19:00 - 19:30 7.7 7.9 7.4 62 0.0 3.6 323 7.2 1029.4 0
19:30 - 20:00 8.0 8.1 7.8 60 0.0 2.2 329 5.8 1029.5 0
20:00 - 20:30 8.0 8.2 7.7 62 0.0 4.0 323 8.3 1029.7 0
20:30 - 21:00 8.4 8.9 7.9 61 0.0 5.4 332 9.7 1029.9 0
21:00 - 21:30 8.5 8.7 8.2 59 0.0 4.0 329 11.2 1030.0 0
21:30 - 22:00 8.7 9.0 8.3 61 0.0 6.5 321 13.0 1029.9 0
22:00 - 22:30 8.6 8.8 8.5 60 0.0 2.9 328 7.2 1030.1 0
22:30 - 23:00 8.7 9.3 8.3 60 0.0 6.8 333 14.4 1030.1 0

Les dades en taronja només han passat un control de qualitat automàtic. Resta pendent la seva validació definitiva.